sensor_id;sensor_type;location;lat;lon;timestamp;P1;durP1;ratioP1;P2;durP2;ratioP2
4500;SDS011;2263;54.654;9.410;2022-08-24T00:00:36;3.40;;;1.80;;
4500;SDS011;2263;54.654;9.410;2022-08-24T00:03:03;4.90;;;1.50;;
4500;SDS011;2263;54.654;9.410;2022-08-24T00:05:30;8.80;;;2.07;;
4500;SDS011;2263;54.654;9.410;2022-08-24T00:07:58;2.63;;;0.90;;
4500;SDS011;2263;54.654;9.410;2022-08-24T00:10:25;3.30;;;2.13;;
4500;SDS011;2263;54.654;9.410;2022-08-24T00:12:52;3.67;;;1.60;;
4500;SDS011;2263;54.654;9.410;2022-08-24T00:15:20;3.30;;;1.40;;
4500;SDS011;2263;54.654;9.410;2022-08-24T00:17:47;2.03;;;1.83;;
4500;SDS011;2263;54.654;9.410;2022-08-24T00:20:15;2.80;;;1.37;;
4500;SDS011;2263;54.654;9.410;2022-08-24T00:22:42;3.77;;;1.80;;
4500;SDS011;2263;54.654;9.410;2022-08-24T00:25:10;3.37;;;1.40;;
4500;SDS011;2263;54.654;9.410;2022-08-24T00:27:40;1.87;;;1.20;;
4500;SDS011;2263;54.654;9.410;2022-08-24T00:30:09;2.30;;;1.10;;
4500;SDS011;2263;54.654;9.410;2022-08-24T00:32:41;1.87;;;0.90;;
4500;SDS011;2263;54.654;9.410;2022-08-24T00:35:10;2.60;;;1.30;;
4500;SDS011;2263;54.654;9.410;2022-08-24T00:37:38;1.90;;;1.40;;
4500;SDS011;2263;54.654;9.410;2022-08-24T00:40:08;2.87;;;1.70;;
4500;SDS011;2263;54.654;9.410;2022-08-24T00:42:38;1.40;;;0.90;;
4500;SDS011;2263;54.654;9.410;2022-08-24T00:45:07;2.00;;;1.07;;
4500;SDS011;2263;54.654;9.410;2022-08-24T00:47:54;1.50;;;0.93;;
4500;SDS011;2263;54.654;9.410;2022-08-24T00:50:32;1.70;;;1.23;;
4500;SDS011;2263;54.654;9.410;2022-08-24T00:53:05;4.10;;;2.27;;
4500;SDS011;2263;54.654;9.410;2022-08-24T00:55:38;2.53;;;1.33;;
4500;SDS011;2263;54.654;9.410;2022-08-24T00:58:16;3.77;;;1.27;;
4500;SDS011;2263;54.654;9.410;2022-08-24T01:00:57;1.60;;;1.10;;
4500;SDS011;2263;54.654;9.410;2022-08-24T01:03:28;2.17;;;1.50;;
4500;SDS011;2263;54.654;9.410;2022-08-24T01:05:57;2.83;;;1.23;;
4500;SDS011;2263;54.654;9.410;2022-08-24T01:08:25;1.70;;;1.60;;
4500;SDS011;2263;54.654;9.410;2022-08-24T01:11:03;1.73;;;1.37;;
4500;SDS011;2263;54.654;9.410;2022-08-24T01:13:38;2.70;;;1.20;;
4500;SDS011;2263;54.654;9.410;2022-08-24T01:16:09;2.10;;;1.40;;
4500;SDS011;2263;54.654;9.410;2022-08-24T01:18:37;2.90;;;2.10;;
4500;SDS011;2263;54.654;9.410;2022-08-24T01:23:57;1.70;;;1.17;;
4500;SDS011;2263;54.654;9.410;2022-08-24T01:29:12;1.70;;;1.30;;
4500;SDS011;2263;54.654;9.410;2022-08-24T01:31:49;2.03;;;1.23;;
4500;SDS011;2263;54.654;9.410;2022-08-24T01:34:17;2.83;;;1.17;;
4500;SDS011;2263;54.654;9.410;2022-08-24T01:36:46;4.57;;;1.70;;
4500;SDS011;2263;54.654;9.410;2022-08-24T01:39:35;3.60;;;1.43;;
4500;SDS011;2263;54.654;9.410;2022-08-24T01:42:05;6.20;;;1.83;;
4500;SDS011;2263;54.654;9.410;2022-08-24T01:44:35;2.00;;;1.30;;
4500;SDS011;2263;54.654;9.410;2022-08-24T01:47:04;1.97;;;1.50;;
4500;SDS011;2263;54.654;9.410;2022-08-24T01:49:35;2.80;;;1.50;;
4500;SDS011;2263;54.654;9.410;2022-08-24T01:52:08;1.73;;;1.10;;
4500;SDS011;2263;54.654;9.410;2022-08-24T01:54:38;2.60;;;1.10;;
4500;SDS011;2263;54.654;9.410;2022-08-24T01:57:09;1.90;;;1.30;;
4500;SDS011;2263;54.654;9.410;2022-08-24T01:59:41;1.40;;;1.00;;
4500;SDS011;2263;54.654;9.410;2022-08-24T02:02:13;5.33;;;1.37;;
4500;SDS011;2263;54.654;9.410;2022-08-24T02:04:45;2.20;;;1.53;;
4500;SDS011;2263;54.654;9.410;2022-08-24T02:07:12;4.13;;;1.43;;
4500;SDS011;2263;54.654;9.410;2022-08-24T02:09:39;1.70;;;1.23;;
4500;SDS011;2263;54.654;9.410;2022-08-24T02:12:07;2.07;;;1.47;;
4500;SDS011;2263;54.654;9.410;2022-08-24T02:14:35;3.33;;;1.40;;
4500;SDS011;2263;54.654;9.410;2022-08-24T02:17:03;2.33;;;1.07;;
4500;SDS011;2263;54.654;9.410;2022-08-24T02:19:32;1.83;;;1.20;;
4500;SDS011;2263;54.654;9.410;2022-08-24T02:21:59;1.70;;;1.10;;
4500;SDS011;2263;54.654;9.410;2022-08-24T02:24:27;2.30;;;1.53;;
4500;SDS011;2263;54.654;9.410;2022-08-24T02:26:55;1.87;;;1.20;;
4500;SDS011;2263;54.654;9.410;2022-08-24T02:29:25;5.23;;;1.10;;
4500;SDS011;2263;54.654;9.410;2022-08-24T02:31:53;1.53;;;1.30;;
4500;SDS011;2263;54.654;9.410;2022-08-24T02:34:20;2.00;;;1.40;;
4500;SDS011;2263;54.654;9.410;2022-08-24T02:36:47;1.50;;;1.37;;
4500;SDS011;2263;54.654;9.410;2022-08-24T02:39:14;1.90;;;1.37;;
4500;SDS011;2263;54.654;9.410;2022-08-24T02:41:41;3.93;;;1.40;;
4500;SDS011;2263;54.654;9.410;2022-08-24T02:44:08;1.63;;;1.30;;
4500;SDS011;2263;54.654;9.410;2022-08-24T02:46:36;3.20;;;1.50;;
4500;SDS011;2263;54.654;9.410;2022-08-24T02:49:03;1.63;;;1.43;;
4500;SDS011;2263;54.654;9.410;2022-08-24T02:51:37;2.73;;;1.47;;
4500;SDS011;2263;54.654;9.410;2022-08-24T02:54:11;1.80;;;1.23;;
4500;SDS011;2263;54.654;9.410;2022-08-24T02:56:43;3.23;;;1.47;;
4500;SDS011;2263;54.654;9.410;2022-08-24T02:59:11;3.70;;;1.53;;
4500;SDS011;2263;54.654;9.410;2022-08-24T03:01:39;1.83;;;1.37;;
4500;SDS011;2263;54.654;9.410;2022-08-24T03:04:06;1.80;;;1.53;;
4500;SDS011;2263;54.654;9.410;2022-08-24T03:06:34;3.20;;;1.57;;
4500;SDS011;2263;54.654;9.410;2022-08-24T03:09:02;2.50;;;1.60;;
4500;SDS011;2263;54.654;9.410;2022-08-24T03:11:29;1.93;;;1.63;;
4500;SDS011;2263;54.654;9.410;2022-08-24T03:13:57;2.03;;;1.83;;
4500;SDS011;2263;54.654;9.410;2022-08-24T03:16:28;3.83;;;1.43;;
4500;SDS011;2263;54.654;9.410;2022-08-24T03:18:57;5.50;;;1.50;;
4500;SDS011;2263;54.654;9.410;2022-08-24T03:21:25;1.67;;;1.57;;
4500;SDS011;2263;54.654;9.410;2022-08-24T03:23:52;1.60;;;1.50;;
4500;SDS011;2263;54.654;9.410;2022-08-24T03:26:19;2.07;;;1.87;;
4500;SDS011;2263;54.654;9.410;2022-08-24T03:28:48;3.07;;;1.60;;
4500;SDS011;2263;54.654;9.410;2022-08-24T03:31:17;4.43;;;1.70;;
4500;SDS011;2263;54.654;9.410;2022-08-24T03:33:47;3.70;;;1.77;;
4500;SDS011;2263;54.654;9.410;2022-08-24T03:36:14;2.20;;;1.73;;
4500;SDS011;2263;54.654;9.410;2022-08-24T03:38:42;45.27;;;28.77;;
4500;SDS011;2263;54.654;9.410;2022-08-24T03:41:10;46.00;;;30.03;;
4500;SDS011;2263;54.654;9.410;2022-08-24T03:43:37;34.73;;;23.97;;
4500;SDS011;2263;54.654;9.410;2022-08-24T03:46:12;36.10;;;21.30;;
4500;SDS011;2263;54.654;9.410;2022-08-24T03:48:47;24.30;;;17.70;;
4500;SDS011;2263;54.654;9.410;2022-08-24T03:51:16;25.73;;;16.97;;
4500;SDS011;2263;54.654;9.410;2022-08-24T03:53:44;23.67;;;14.50;;
4500;SDS011;2263;54.654;9.410;2022-08-24T03:56:12;15.37;;;11.47;;
4500;SDS011;2263;54.654;9.410;2022-08-24T03:58:39;13.50;;;10.00;;
4500;SDS011;2263;54.654;9.410;2022-08-24T04:01:07;11.57;;;10.37;;
4500;SDS011;2263;54.654;9.410;2022-08-24T04:03:36;12.90;;;9.83;;
4500;SDS011;2263;54.654;9.410;2022-08-24T04:06:04;9.93;;;6.87;;
4500;SDS011;2263;54.654;9.410;2022-08-24T04:08:33;9.13;;;7.27;;
4500;SDS011;2263;54.654;9.410;2022-08-24T04:11:01;7.23;;;6.63;;
4500;SDS011;2263;54.654;9.410;2022-08-24T04:13:29;5.80;;;5.30;;
4500;SDS011;2263;54.654;9.410;2022-08-24T04:16:04;5.80;;;4.93;;
4500;SDS011;2263;54.654;9.410;2022-08-24T04:18:35;5.93;;;5.43;;
4500;SDS011;2263;54.654;9.410;2022-08-24T04:21:02;5.27;;;3.70;;
4500;SDS011;2263;54.654;9.410;2022-08-24T04:23:31;4.47;;;4.07;;
4500;SDS011;2263;54.654;9.410;2022-08-24T04:26:13;3.90;;;3.60;;
4500;SDS011;2263;54.654;9.410;2022-08-24T04:29:02;4.80;;;3.37;;
4500;SDS011;2263;54.654;9.410;2022-08-24T04:31:34;3.67;;;3.27;;
4500;SDS011;2263;54.654;9.410;2022-08-24T04:34:03;5.77;;;3.33;;
4500;SDS011;2263;54.654;9.410;2022-08-24T04:36:31;2.53;;;2.33;;
4500;SDS011;2263;54.654;9.410;2022-08-24T04:38:58;4.13;;;3.00;;
4500;SDS011;2263;54.654;9.410;2022-08-24T04:41:26;2.73;;;2.33;;
4500;SDS011;2263;54.654;9.410;2022-08-24T04:43:57;4.33;;;2.50;;
4500;SDS011;2263;54.654;9.410;2022-08-24T04:46:25;3.80;;;2.37;;
4500;SDS011;2263;54.654;9.410;2022-08-24T04:48:53;2.53;;;2.30;;
4500;SDS011;2263;54.654;9.410;2022-08-24T04:51:21;2.70;;;2.50;;
4500;SDS011;2263;54.654;9.410;2022-08-24T04:53:49;4.40;;;2.57;;
4500;SDS011;2263;54.654;9.410;2022-08-24T04:56:18;4.00;;;2.07;;
4500;SDS011;2263;54.654;9.410;2022-08-24T04:58:49;3.00;;;2.63;;
4500;SDS011;2263;54.654;9.410;2022-08-24T05:01:20;4.10;;;2.53;;
4500;SDS011;2263;54.654;9.410;2022-08-24T05:03:50;6.40;;;2.67;;
4500;SDS011;2263;54.654;9.410;2022-08-24T05:06:20;2.43;;;2.10;;
4500;SDS011;2263;54.654;9.410;2022-08-24T05:08:49;2.40;;;1.73;;
4500;SDS011;2263;54.654;9.410;2022-08-24T05:11:17;6.73;;;2.53;;
4500;SDS011;2263;54.654;9.410;2022-08-24T05:13:45;6.27;;;2.33;;
4500;SDS011;2263;54.654;9.410;2022-08-24T05:16:13;5.20;;;2.63;;
4500;SDS011;2263;54.654;9.410;2022-08-24T05:18:43;4.10;;;2.40;;
4500;SDS011;2263;54.654;9.410;2022-08-24T05:21:12;4.33;;;1.83;;
4500;SDS011;2263;54.654;9.410;2022-08-24T05:23:42;2.43;;;2.23;;
4500;SDS011;2263;54.654;9.410;2022-08-24T05:26:12;3.30;;;2.40;;
4500;SDS011;2263;54.654;9.410;2022-08-24T05:28:41;2.50;;;1.90;;
4500;SDS011;2263;54.654;9.410;2022-08-24T05:31:10;6.03;;;2.60;;
4500;SDS011;2263;54.654;9.410;2022-08-24T05:33:40;2.67;;;2.40;;
4500;SDS011;2263;54.654;9.410;2022-08-24T05:36:14;2.40;;;2.20;;
4500;SDS011;2263;54.654;9.410;2022-08-24T05:38:43;2.20;;;2.00;;
4500;SDS011;2263;54.654;9.410;2022-08-24T05:41:11;5.70;;;2.20;;
4500;SDS011;2263;54.654;9.410;2022-08-24T05:43:38;3.57;;;2.57;;
4500;SDS011;2263;54.654;9.410;2022-08-24T05:46:05;4.37;;;2.00;;
4500;SDS011;2263;54.654;9.410;2022-08-24T05:48:32;3.20;;;1.93;;
4500;SDS011;2263;54.654;9.410;2022-08-24T05:51:03;5.83;;;2.20;;
4500;SDS011;2263;54.654;9.410;2022-08-24T05:53:33;3.67;;;2.37;;
4500;SDS011;2263;54.654;9.410;2022-08-24T05:56:04;2.90;;;2.17;;
4500;SDS011;2263;54.654;9.410;2022-08-24T05:58:33;4.40;;;2.43;;
4500;SDS011;2263;54.654;9.410;2022-08-24T06:01:04;4.67;;;2.13;;
4500;SDS011;2263;54.654;9.410;2022-08-24T06:03:33;3.47;;;2.40;;
4500;SDS011;2263;54.654;9.410;2022-08-24T06:06:01;7.03;;;2.20;;
4500;SDS011;2263;54.654;9.410;2022-08-24T06:08:30;2.30;;;2.10;;
4500;SDS011;2263;54.654;9.410;2022-08-24T06:10:58;6.37;;;2.80;;
4500;SDS011;2263;54.654;9.410;2022-08-24T06:13:28;2.70;;;2.17;;
4500;SDS011;2263;54.654;9.410;2022-08-24T06:16:03;2.13;;;1.93;;
4500;SDS011;2263;54.654;9.410;2022-08-24T06:18:47;3.13;;;1.87;;
4500;SDS011;2263;54.654;9.410;2022-08-24T06:21:18;5.60;;;2.20;;
4500;SDS011;2263;54.654;9.410;2022-08-24T06:23:49;3.10;;;2.23;;
4500;SDS011;2263;54.654;9.410;2022-08-24T06:26:18;2.50;;;1.97;;
4500;SDS011;2263;54.654;9.410;2022-08-24T06:29:05;4.90;;;2.00;;
4500;SDS011;2263;54.654;9.410;2022-08-24T06:31:38;2.20;;;1.97;;
4500;SDS011;2263;54.654;9.410;2022-08-24T06:34:07;4.47;;;2.23;;
4500;SDS011;2263;54.654;9.410;2022-08-24T06:36:39;2.30;;;1.53;;
4500;SDS011;2263;54.654;9.410;2022-08-24T06:39:08;3.00;;;1.53;;
4500;SDS011;2263;54.654;9.410;2022-08-24T06:41:37;5.60;;;2.10;;
4500;SDS011;2263;54.654;9.410;2022-08-24T06:44:05;3.40;;;1.93;;
4500;SDS011;2263;54.654;9.410;2022-08-24T06:46:34;2.80;;;1.90;;
4500;SDS011;2263;54.654;9.410;2022-08-24T06:49:04;4.50;;;2.30;;
4500;SDS011;2263;54.654;9.410;2022-08-24T06:51:31;3.70;;;2.87;;
4500;SDS011;2263;54.654;9.410;2022-08-24T06:53:59;3.60;;;2.03;;
4500;SDS011;2263;54.654;9.410;2022-08-24T06:56:26;5.10;;;4.13;;
4500;SDS011;2263;54.654;9.410;2022-08-24T06:58:53;3.07;;;2.10;;
4500;SDS011;2263;54.654;9.410;2022-08-24T07:01:22;7.90;;;2.17;;
4500;SDS011;2263;54.654;9.410;2022-08-24T07:03:51;3.50;;;1.90;;
4500;SDS011;2263;54.654;9.410;2022-08-24T07:06:19;3.10;;;2.90;;
4500;SDS011;2263;54.654;9.410;2022-08-24T07:08:46;7.57;;;2.80;;
4500;SDS011;2263;54.654;9.410;2022-08-24T07:11:15;2.33;;;1.87;;
4500;SDS011;2263;54.654;9.410;2022-08-24T07:13:43;3.47;;;2.33;;
4500;SDS011;2263;54.654;9.410;2022-08-24T07:16:17;3.67;;;1.90;;
4500;SDS011;2263;54.654;9.410;2022-08-24T07:18:45;5.00;;;1.73;;
4500;SDS011;2263;54.654;9.410;2022-08-24T07:21:16;4.37;;;1.93;;
4500;SDS011;2263;54.654;9.410;2022-08-24T07:23:48;2.17;;;1.97;;
4500;SDS011;2263;54.654;9.410;2022-08-24T07:26:20;2.37;;;1.40;;
4500;SDS011;2263;54.654;9.410;2022-08-24T07:28:53;3.33;;;2.43;;
4500;SDS011;2263;54.654;9.410;2022-08-24T07:31:31;4.63;;;2.13;;
4500;SDS011;2263;54.654;9.410;2022-08-24T07:34:01;3.90;;;2.10;;
4500;SDS011;2263;54.654;9.410;2022-08-24T07:36:30;5.57;;;2.27;;
4500;SDS011;2263;54.654;9.410;2022-08-24T07:38:57;2.63;;;2.17;;
4500;SDS011;2263;54.654;9.410;2022-08-24T07:41:25;4.43;;;1.97;;
4500;SDS011;2263;54.654;9.410;2022-08-24T07:44:13;2.03;;;1.70;;
4500;SDS011;2263;54.654;9.410;2022-08-24T07:46:41;2.23;;;1.60;;
4500;SDS011;2263;54.654;9.410;2022-08-24T07:49:10;3.00;;;2.10;;
4500;SDS011;2263;54.654;9.410;2022-08-24T07:51:57;6.87;;;1.90;;
4500;SDS011;2263;54.654;9.410;2022-08-24T07:54:25;2.80;;;1.87;;
4500;SDS011;2263;54.654;9.410;2022-08-24T07:56:54;2.77;;;2.57;;
4500;SDS011;2263;54.654;9.410;2022-08-24T07:59:21;5.30;;;2.27;;
4500;SDS011;2263;54.654;9.410;2022-08-24T08:01:49;1.70;;;1.50;;
4500;SDS011;2263;54.654;9.410;2022-08-24T08:04:19;2.33;;;1.50;;
4500;SDS011;2263;54.654;9.410;2022-08-24T08:06:53;3.50;;;2.20;;
4500;SDS011;2263;54.654;9.410;2022-08-24T08:09:21;2.63;;;1.60;;
4500;SDS011;2263;54.654;9.410;2022-08-24T08:11:48;5.10;;;1.70;;
4500;SDS011;2263;54.654;9.410;2022-08-24T08:14:16;8.13;;;2.37;;
4500;SDS011;2263;54.654;9.410;2022-08-24T08:16:43;2.53;;;2.03;;
4500;SDS011;2263;54.654;9.410;2022-08-24T08:19:11;4.20;;;2.10;;
4500;SDS011;2263;54.654;9.410;2022-08-24T08:21:45;2.13;;;1.70;;
4500;SDS011;2263;54.654;9.410;2022-08-24T08:24:32;1.60;;;1.50;;
4500;SDS011;2263;54.654;9.410;2022-08-24T08:27:00;1.70;;;1.60;;
4500;SDS011;2263;54.654;9.410;2022-08-24T08:29:29;2.30;;;1.73;;
4500;SDS011;2263;54.654;9.410;2022-08-24T08:31:58;2.57;;;1.93;;
4500;SDS011;2263;54.654;9.410;2022-08-24T08:34:26;2.13;;;1.73;;
4500;SDS011;2263;54.654;9.410;2022-08-24T08:36:54;4.50;;;2.07;;
4500;SDS011;2263;54.654;9.410;2022-08-24T08:39:22;3.50;;;2.23;;
4500;SDS011;2263;54.654;9.410;2022-08-24T08:58:46;3.77;;;2.50;;
4500;SDS011;2263;54.654;9.410;2022-08-24T09:04:18;3.17;;;2.20;;
4500;SDS011;2263;54.654;9.410;2022-08-24T09:27:13;2.33;;;1.73;;
4500;SDS011;2263;54.654;9.410;2022-08-24T09:32:57;5.00;;;1.80;;
4500;SDS011;2263;54.654;9.410;2022-08-24T09:58:07;2.03;;;1.63;;
4500;SDS011;2263;54.654;9.410;2022-08-24T10:00:56;2.70;;;1.93;;
4500;SDS011;2263;54.654;9.410;2022-08-24T10:03:44;2.40;;;2.20;;
4500;SDS011;2263;54.654;9.410;2022-08-24T10:06:31;2.00;;;1.80;;
4500;SDS011;2263;54.654;9.410;2022-08-24T10:12:23;3.80;;;1.80;;
4500;SDS011;2263;54.654;9.410;2022-08-24T10:15:18;2.90;;;2.10;;
4500;SDS011;2263;54.654;9.410;2022-08-24T10:20:33;2.07;;;1.90;;
4500;SDS011;2263;54.654;9.410;2022-08-24T10:23:40;2.90;;;1.30;;
4500;SDS011;2263;54.654;9.410;2022-08-24T10:35:06;3.60;;;1.80;;
4500;SDS011;2263;54.654;9.410;2022-08-24T10:41:04;1.60;;;1.50;;
4500;SDS011;2263;54.654;9.410;2022-08-24T10:46:47;2.23;;;1.50;;
4500;SDS011;2263;54.654;9.410;2022-08-24T10:49:26;3.10;;;1.57;;
4500;SDS011;2263;54.654;9.410;2022-08-24T10:54:52;1.87;;;1.20;;
4500;SDS011;2263;54.654;9.410;2022-08-24T11:02:48;1.67;;;1.57;;
4500;SDS011;2263;54.654;9.410;2022-08-24T11:05:33;3.73;;;2.67;;
4500;SDS011;2263;54.654;9.410;2022-08-24T11:08:25;3.30;;;1.87;;
4500;SDS011;2263;54.654;9.410;2022-08-24T11:16:29;1.43;;;1.30;;
4500;SDS011;2263;54.654;9.410;2022-08-24T11:19:10;2.97;;;1.63;;
4500;SDS011;2263;54.654;9.410;2022-08-24T11:21:59;3.40;;;1.67;;
4500;SDS011;2263;54.654;9.410;2022-08-24T11:24:39;2.60;;;1.77;;
4500;SDS011;2263;54.654;9.410;2022-08-24T11:35:03;2.27;;;1.80;;
4500;SDS011;2263;54.654;9.410;2022-08-24T11:37:53;2.07;;;1.40;;
4500;SDS011;2263;54.654;9.410;2022-08-24T11:40:32;2.93;;;1.70;;
4500;SDS011;2263;54.654;9.410;2022-08-24T11:51:40;2.23;;;1.87;;
4500;SDS011;2263;54.654;9.410;2022-08-24T11:59:54;2.80;;;1.67;;
4500;SDS011;2263;54.654;9.410;2022-08-24T12:15:50;1.60;;;1.30;;
4500;SDS011;2263;54.654;9.410;2022-08-24T12:21:20;2.73;;;1.90;;
4500;SDS011;2263;54.654;9.410;2022-08-24T12:23:51;6.10;;;2.13;;
4500;SDS011;2263;54.654;9.410;2022-08-24T12:28:58;3.23;;;1.53;;
4500;SDS011;2263;54.654;9.410;2022-08-24T12:34:53;2.53;;;1.90;;
4500;SDS011;2263;54.654;9.410;2022-08-24T12:42:57;5.73;;;1.83;;
4500;SDS011;2263;54.654;9.410;2022-08-24T12:45:34;2.20;;;1.90;;
4500;SDS011;2263;54.654;9.410;2022-08-24T12:59:27;1.60;;;1.50;;
4500;SDS011;2263;54.654;9.410;2022-08-24T13:02:24;2.40;;;1.53;;
4500;SDS011;2263;54.654;9.410;2022-08-24T13:04:57;3.77;;;1.70;;
4500;SDS011;2263;54.654;9.410;2022-08-24T13:07:30;1.70;;;1.60;;
4500;SDS011;2263;54.654;9.410;2022-08-24T13:10:12;3.07;;;1.60;;
4500;SDS011;2263;54.654;9.410;2022-08-24T13:28:47;3.47;;;1.70;;
4500;SDS011;2263;54.654;9.410;2022-08-24T13:31:26;2.17;;;1.97;;
4500;SDS011;2263;54.654;9.410;2022-08-24T13:42:15;1.87;;;1.70;;
4500;SDS011;2263;54.654;9.410;2022-08-24T13:44:55;3.40;;;1.63;;
4500;SDS011;2263;54.654;9.410;2022-08-24T14:15:22;2.50;;;2.03;;
4500;SDS011;2263;54.654;9.410;2022-08-24T14:42:37;5.60;;;2.20;;
4500;SDS011;2263;54.654;9.410;2022-08-24T14:45:14;3.43;;;1.90;;
4500;SDS011;2263;54.654;9.410;2022-08-24T14:53:49;91.40;;;57.03;;
4500;SDS011;2263;54.654;9.410;2022-08-24T15:07:51;31.60;;;19.77;;
4500;SDS011;2263;54.654;9.410;2022-08-24T15:10:22;37.30;;;19.47;;
4500;SDS011;2263;54.654;9.410;2022-08-24T15:12:55;28.97;;;17.97;;
4500;SDS011;2263;54.654;9.410;2022-08-24T15:18:07;26.13;;;15.20;;
4500;SDS011;2263;54.654;9.410;2022-08-24T15:29:07;12.20;;;7.30;;
4500;SDS011;2263;54.654;9.410;2022-08-24T15:34:53;8.33;;;6.17;;
4500;SDS011;2263;54.654;9.410;2022-08-24T15:37:28;8.87;;;5.53;;
4500;SDS011;2263;54.654;9.410;2022-08-24T15:39:58;8.60;;;4.80;;
4500;SDS011;2263;54.654;9.410;2022-08-24T15:42:28;7.47;;;4.97;;
4500;SDS011;2263;54.654;9.410;2022-08-24T15:45:00;5.90;;;4.77;;
4500;SDS011;2263;54.654;9.410;2022-08-24T15:47:30;5.93;;;3.90;;
4500;SDS011;2263;54.654;9.410;2022-08-24T15:50:03;4.90;;;4.57;;
4500;SDS011;2263;54.654;9.410;2022-08-24T15:57:50;4.70;;;3.93;;
4500;SDS011;2263;54.654;9.410;2022-08-24T16:00:20;5.77;;;3.90;;
4500;SDS011;2263;54.654;9.410;2022-08-24T16:03:20;5.20;;;3.60;;
4500;SDS011;2263;54.654;9.410;2022-08-24T16:05:53;4.90;;;3.00;;
4500;SDS011;2263;54.654;9.410;2022-08-24T16:09:01;3.03;;;2.83;;
4500;SDS011;2263;54.654;9.410;2022-08-24T16:11:31;4.60;;;2.67;;
4500;SDS011;2263;54.654;9.410;2022-08-24T16:14:14;3.87;;;2.37;;
4500;SDS011;2263;54.654;9.410;2022-08-24T16:16:54;4.20;;;2.77;;
4500;SDS011;2263;54.654;9.410;2022-08-24T16:19:32;2.97;;;2.40;;
4500;SDS011;2263;54.654;9.410;2022-08-24T16:22:04;7.10;;;3.40;;
4500;SDS011;2263;54.654;9.410;2022-08-24T16:24:36;3.27;;;2.20;;
4500;SDS011;2263;54.654;9.410;2022-08-24T16:27:08;4.03;;;2.30;;
4500;SDS011;2263;54.654;9.410;2022-08-24T16:32:17;3.77;;;2.97;;
4500;SDS011;2263;54.654;9.410;2022-08-24T16:37:36;8.00;;;2.57;;
4500;SDS011;2263;54.654;9.410;2022-08-24T16:40:05;3.63;;;2.67;;
4500;SDS011;2263;54.654;9.410;2022-08-24T16:42:34;3.87;;;2.80;;
4500;SDS011;2263;54.654;9.410;2022-08-24T16:45:03;6.40;;;2.47;;
4500;SDS011;2263;54.654;9.410;2022-08-24T16:47:31;3.40;;;2.30;;
4500;SDS011;2263;54.654;9.410;2022-08-24T16:49:58;2.37;;;2.17;;
4500;SDS011;2263;54.654;9.410;2022-08-24T16:52:26;5.27;;;2.87;;
4500;SDS011;2263;54.654;9.410;2022-08-24T16:54:56;3.77;;;3.20;;
4500;SDS011;2263;54.654;9.410;2022-08-24T16:57:30;5.90;;;2.40;;
4500;SDS011;2263;54.654;9.410;2022-08-24T17:00:05;9.77;;;3.50;;
4500;SDS011;2263;54.654;9.410;2022-08-24T17:02:34;2.97;;;2.60;;
4500;SDS011;2263;54.654;9.410;2022-08-24T17:05:01;10.40;;;8.73;;
4500;SDS011;2263;54.654;9.410;2022-08-24T17:07:30;15.93;;;8.43;;
4500;SDS011;2263;54.654;9.410;2022-08-24T17:09:59;10.97;;;9.23;;
4500;SDS011;2263;54.654;9.410;2022-08-24T17:12:28;12.00;;;6.80;;
4500;SDS011;2263;54.654;9.410;2022-08-24T17:14:56;13.67;;;3.13;;
4500;SDS011;2263;54.654;9.410;2022-08-24T17:17:24;4.63;;;2.63;;
4500;SDS011;2263;54.654;9.410;2022-08-24T17:19:52;7.53;;;3.10;;
4500;SDS011;2263;54.654;9.410;2022-08-24T17:22:21;4.60;;;2.90;;
4500;SDS011;2263;54.654;9.410;2022-08-24T17:24:49;5.87;;;2.90;;
4500;SDS011;2263;54.654;9.410;2022-08-24T17:27:17;6.23;;;3.30;;
4500;SDS011;2263;54.654;9.410;2022-08-24T17:29:45;4.57;;;2.60;;
4500;SDS011;2263;54.654;9.410;2022-08-24T17:32:13;8.50;;;2.50;;
4500;SDS011;2263;54.654;9.410;2022-08-24T17:34:41;3.57;;;3.07;;
4500;SDS011;2263;54.654;9.410;2022-08-24T17:37:08;6.47;;;2.73;;
4500;SDS011;2263;54.654;9.410;2022-08-24T17:39:36;4.23;;;2.87;;
4500;SDS011;2263;54.654;9.410;2022-08-24T17:42:04;4.57;;;2.50;;
4500;SDS011;2263;54.654;9.410;2022-08-24T17:44:51;3.77;;;3.00;;
4500;SDS011;2263;54.654;9.410;2022-08-24T17:47:19;8.20;;;3.20;;
4500;SDS011;2263;54.654;9.410;2022-08-24T17:49:47;5.77;;;3.57;;
4500;SDS011;2263;54.654;9.410;2022-08-24T17:52:14;13.30;;;3.90;;
4500;SDS011;2263;54.654;9.410;2022-08-24T17:54:42;42.93;;;35.33;;
4500;SDS011;2263;54.654;9.410;2022-08-24T17:57:13;19.30;;;16.30;;
4500;SDS011;2263;54.654;9.410;2022-08-24T17:59:40;9.93;;;9.10;;
4500;SDS011;2263;54.654;9.410;2022-08-24T18:02:09;8.77;;;7.97;;
4500;SDS011;2263;54.654;9.410;2022-08-24T18:04:38;8.90;;;7.47;;
4500;SDS011;2263;54.654;9.410;2022-08-24T18:07:10;8.47;;;5.83;;
4500;SDS011;2263;54.654;9.410;2022-08-24T18:09:52;8.43;;;6.33;;
4500;SDS011;2263;54.654;9.410;2022-08-24T18:12:22;8.60;;;5.17;;
4500;SDS011;2263;54.654;9.410;2022-08-24T18:14:50;6.50;;;4.90;;
4500;SDS011;2263;54.654;9.410;2022-08-24T18:17:19;10.63;;;4.60;;
4500;SDS011;2263;54.654;9.410;2022-08-24T18:19:52;5.33;;;4.90;;
4500;SDS011;2263;54.654;9.410;2022-08-24T18:22:20;6.63;;;5.13;;
4500;SDS011;2263;54.654;9.410;2022-08-24T18:24:47;4.13;;;3.83;;
4500;SDS011;2263;54.654;9.410;2022-08-24T18:27:16;3.87;;;3.53;;
4500;SDS011;2263;54.654;9.410;2022-08-24T18:29:49;5.77;;;3.17;;
4500;SDS011;2263;54.654;9.410;2022-08-24T18:32:22;4.53;;;3.20;;
4500;SDS011;2263;54.654;9.410;2022-08-24T18:34:56;4.97;;;3.77;;
4500;SDS011;2263;54.654;9.410;2022-08-24T18:37:24;5.80;;;4.40;;
4500;SDS011;2263;54.654;9.410;2022-08-24T18:39:51;3.50;;;2.80;;
4500;SDS011;2263;54.654;9.410;2022-08-24T18:42:25;4.97;;;3.90;;
4500;SDS011;2263;54.654;9.410;2022-08-24T18:44:54;4.53;;;3.10;;
4500;SDS011;2263;54.654;9.410;2022-08-24T18:47:22;3.33;;;2.33;;
4500;SDS011;2263;54.654;9.410;2022-08-24T18:49:49;3.03;;;2.83;;
4500;SDS011;2263;54.654;9.410;2022-08-24T18:52:16;5.30;;;3.03;;
4500;SDS011;2263;54.654;9.410;2022-08-24T18:54:46;9.17;;;2.67;;
4500;SDS011;2263;54.654;9.410;2022-08-24T18:57:14;11.90;;;2.90;;
4500;SDS011;2263;54.654;9.410;2022-08-24T18:59:43;5.10;;;3.40;;
4500;SDS011;2263;54.654;9.410;2022-08-24T19:02:18;2.20;;;2.03;;
4500;SDS011;2263;54.654;9.410;2022-08-24T19:04:59;3.87;;;2.30;;
4500;SDS011;2263;54.654;9.410;2022-08-24T19:07:34;3.23;;;2.80;;
4500;SDS011;2263;54.654;9.410;2022-08-24T19:10:07;5.90;;;2.40;;
4500;SDS011;2263;54.654;9.410;2022-08-24T19:12:36;4.33;;;2.87;;
4500;SDS011;2263;54.654;9.410;2022-08-24T19:15:09;4.67;;;2.80;;
4500;SDS011;2263;54.654;9.410;2022-08-24T19:17:57;3.87;;;2.20;;
4500;SDS011;2263;54.654;9.410;2022-08-24T19:20:24;2.93;;;2.57;;
4500;SDS011;2263;54.654;9.410;2022-08-24T19:22:58;2.43;;;1.80;;
4500;SDS011;2263;54.654;9.410;2022-08-24T19:25:30;3.53;;;2.17;;
4500;SDS011;2263;54.654;9.410;2022-08-24T19:27:58;3.77;;;2.40;;
4500;SDS011;2263;54.654;9.410;2022-08-24T19:30:25;6.70;;;2.60;;
4500;SDS011;2263;54.654;9.410;2022-08-24T19:32:53;3.77;;;2.20;;
4500;SDS011;2263;54.654;9.410;2022-08-24T19:35:22;4.47;;;2.27;;
4500;SDS011;2263;54.654;9.410;2022-08-24T19:37:49;7.60;;;2.30;;
4500;SDS011;2263;54.654;9.410;2022-08-24T19:40:17;6.07;;;2.20;;
4500;SDS011;2263;54.654;9.410;2022-08-24T19:42:49;2.87;;;2.23;;
4500;SDS011;2263;54.654;9.410;2022-08-24T19:45:23;5.43;;;2.30;;
4500;SDS011;2263;54.654;9.410;2022-08-24T19:48:10;2.37;;;2.20;;
4500;SDS011;2263;54.654;9.410;2022-08-24T19:50:38;2.83;;;2.40;;
4500;SDS011;2263;54.654;9.410;2022-08-24T19:53:05;2.83;;;2.60;;
4500;SDS011;2263;54.654;9.410;2022-08-24T19:55:33;5.33;;;2.47;;
4500;SDS011;2263;54.654;9.410;2022-08-24T20:01:02;5.03;;;2.93;;
4500;SDS011;2263;54.654;9.410;2022-08-24T20:03:33;3.87;;;2.60;;
4500;SDS011;2263;54.654;9.410;2022-08-24T20:06:00;5.90;;;2.60;;
4500;SDS011;2263;54.654;9.410;2022-08-24T20:08:28;3.70;;;2.83;;
4500;SDS011;2263;54.654;9.410;2022-08-24T20:10:55;2.83;;;1.97;;
4500;SDS011;2263;54.654;9.410;2022-08-24T20:13:26;2.73;;;1.90;;
4500;SDS011;2263;54.654;9.410;2022-08-24T20:15:54;4.60;;;2.17;;
4500;SDS011;2263;54.654;9.410;2022-08-24T20:18:23;2.57;;;2.37;;
4500;SDS011;2263;54.654;9.410;2022-08-24T20:20:56;6.80;;;2.40;;
4500;SDS011;2263;54.654;9.410;2022-08-24T20:23:24;5.73;;;3.10;;
4500;SDS011;2263;54.654;9.410;2022-08-24T20:25:51;2.43;;;2.23;;
4500;SDS011;2263;54.654;9.410;2022-08-24T20:28:18;2.57;;;2.30;;
4500;SDS011;2263;54.654;9.410;2022-08-24T20:30:55;2.17;;;1.97;;